sensor_id;sensor_type;location;lat;lon;timestamp;pressure;altitude;pressure_sealevel;temperature;humidity
5595;BME280;1003;48.002;7.788;2023-09-18T00:00:11;98678.53;;;19.75;100.00
5595;BME280;1003;48.002;7.788;2023-09-18T00:02:39;98713.94;;;19.80;100.00
5595;BME280;1003;48.002;7.788;2023-09-18T00:05:06;98805.75;;;19.96;100.00
5595;BME280;1003;48.002;7.788;2023-09-18T00:07:35;98813.13;;;20.32;100.00
5595;BME280;1003;48.002;7.788;2023-09-18T00:10:03;98710.41;;;20.42;100.00
5595;BME280;1003;48.002;7.788;2023-09-18T00:12:30;98678.28;;;20.38;100.00
5595;BME280;1003;48.002;7.788;2023-09-18T00:14:57;98693.44;;;20.41;100.00
5595;BME280;1003;48.002;7.788;2023-09-18T00:17:24;98697.34;;;20.33;100.00
5595;BME280;1003;48.002;7.788;2023-09-18T00:19:51;98666.97;;;20.28;100.00
5595;BME280;1003;48.002;7.788;2023-09-18T00:22:19;98657.94;;;20.23;100.00
5595;BME280;1003;48.002;7.788;2023-09-18T00:24:48;98669.25;;;20.18;100.00
5595;BME280;1003;48.002;7.788;2023-09-18T00:27:15;98691.72;;;20.12;100.00
5595;BME280;1003;48.002;7.788;2023-09-18T00:29:42;98700.28;;;20.11;100.00
5595;BME280;1003;48.002;7.788;2023-09-18T00:32:09;98727.81;;;20.06;100.00
5595;BME280;1003;48.002;7.788;2023-09-18T00:34:36;98731.63;;;19.99;100.00
5595;BME280;1003;48.002;7.788;2023-09-18T00:37:03;98697.31;;;19.88;100.00
5595;BME280;1003;48.002;7.788;2023-09-18T00:39:30;98664.59;;;19.81;100.00
5595;BME280;1003;48.002;7.788;2023-09-18T00:41:59;98676.03;;;19.74;100.00
5595;BME280;1003;48.002;7.788;2023-09-18T00:44:26;98628.19;;;19.63;100.00
5595;BME280;1003;48.002;7.788;2023-09-18T00:46:53;98626.56;;;19.62;100.00
5595;BME280;1003;48.002;7.788;2023-09-18T00:49:22;98630.31;;;19.71;100.00
5595;BME280;1003;48.002;7.788;2023-09-18T00:51:51;98635.63;;;19.82;100.00
5595;BME280;1003;48.002;7.788;2023-09-18T00:54:19;98571.53;;;19.88;100.00
5595;BME280;1003;48.002;7.788;2023-09-18T00:56:47;98529.91;;;19.87;100.00
5595;BME280;1003;48.002;7.788;2023-09-18T00:59:21;98511.59;;;19.95;100.00
5595;BME280;1003;48.002;7.788;2023-09-18T01:01:49;98498.28;;;19.90;100.00
5595;BME280;1003;48.002;7.788;2023-09-18T01:04:17;98503.03;;;19.82;100.00
5595;BME280;1003;48.002;7.788;2023-09-18T01:06:44;98510.13;;;19.77;100.00
5595;BME280;1003;48.002;7.788;2023-09-18T01:09:13;98508.66;;;19.73;100.00
5595;BME280;1003;48.002;7.788;2023-09-18T01:11:50;98501.00;;;19.73;100.00
5595;BME280;1003;48.002;7.788;2023-09-18T01:14:29;98510.38;;;19.72;100.00
5595;BME280;1003;48.002;7.788;2023-09-18T01:17:00;98514.84;;;19.69;100.00
5595;BME280;1003;48.002;7.788;2023-09-18T01:19:37;98509.13;;;19.65;100.00
5595;BME280;1003;48.002;7.788;2023-09-18T01:22:05;98523.50;;;19.66;100.00
5595;BME280;1003;48.002;7.788;2023-09-18T01:24:35;98541.69;;;19.60;100.00
5595;BME280;1003;48.002;7.788;2023-09-18T01:27:04;98541.09;;;19.55;100.00
5595;BME280;1003;48.002;7.788;2023-09-18T01:29:31;98536.38;;;19.49;100.00
5595;BME280;1003;48.002;7.788;2023-09-18T01:31:58;98535.81;;;19.58;100.00
5595;BME280;1003;48.002;7.788;2023-09-18T01:34:30;98533.78;;;19.64;100.00
5595;BME280;1003;48.002;7.788;2023-09-18T01:37:00;98495.91;;;19.73;100.00
5595;BME280;1003;48.002;7.788;2023-09-18T01:39:30;98551.84;;;19.76;100.00
5595;BME280;1003;48.002;7.788;2023-09-18T01:42:00;98545.00;;;19.76;100.00
5595;BME280;1003;48.002;7.788;2023-09-18T01:44:28;98549.28;;;19.76;100.00
5595;BME280;1003;48.002;7.788;2023-09-18T01:46:58;98550.00;;;19.78;100.00
5595;BME280;1003;48.002;7.788;2023-09-18T01:49:30;98576.16;;;19.81;100.00
5595;BME280;1003;48.002;7.788;2023-09-18T01:51:57;98599.75;;;19.85;100.00
5595;BME280;1003;48.002;7.788;2023-09-18T01:54:25;98615.66;;;19.74;100.00
5595;BME280;1003;48.002;7.788;2023-09-18T01:56:52;98601.72;;;19.65;100.00
5595;BME280;1003;48.002;7.788;2023-09-18T01:59:22;98602.63;;;19.49;100.00
5595;BME280;1003;48.002;7.788;2023-09-18T02:01:51;98596.16;;;19.43;100.00
5595;BME280;1003;48.002;7.788;2023-09-18T02:04:18;98594.66;;;19.39;100.00
5595;BME280;1003;48.002;7.788;2023-09-18T02:06:47;98613.44;;;19.22;100.00
5595;BME280;1003;48.002;7.788;2023-09-18T02:09:15;98616.81;;;19.23;100.00
5595;BME280;1003;48.002;7.788;2023-09-18T02:11:43;98646.56;;;19.22;100.00
5595;BME280;1003;48.002;7.788;2023-09-18T02:14:11;98655.59;;;19.28;100.00
5595;BME280;1003;48.002;7.788;2023-09-18T02:16:43;98670.31;;;19.38;100.00
5595;BME280;1003;48.002;7.788;2023-09-18T02:19:12;98672.03;;;19.38;100.00
5595;BME280;1003;48.002;7.788;2023-09-18T02:21:40;98683.63;;;19.44;100.00
5595;BME280;1003;48.002;7.788;2023-09-18T02:24:08;98689.03;;;19.53;100.00
5595;BME280;1003;48.002;7.788;2023-09-18T02:26:35;98716.19;;;19.54;100.00
5595;BME280;1003;48.002;7.788;2023-09-18T02:29:06;98754.47;;;19.53;100.00
5595;BME280;1003;48.002;7.788;2023-09-18T02:31:33;98806.59;;;19.64;100.00
5595;BME280;1003;48.002;7.788;2023-09-18T02:34:01;98809.97;;;19.65;100.00
5595;BME280;1003;48.002;7.788;2023-09-18T02:36:29;98805.50;;;19.69;100.00
5595;BME280;1003;48.002;7.788;2023-09-18T02:38:56;98801.03;;;19.56;100.00
5595;BME280;1003;48.002;7.788;2023-09-18T02:41:23;98800.13;;;19.57;100.00
5595;BME280;1003;48.002;7.788;2023-09-18T02:43:50;98781.78;;;19.51;100.00
5595;BME280;1003;48.002;7.788;2023-09-18T02:46:17;98801.38;;;19.50;100.00
5595;BME280;1003;48.002;7.788;2023-09-18T02:48:44;98780.97;;;19.50;100.00
5595;BME280;1003;48.002;7.788;2023-09-18T02:51:12;98771.75;;;19.48;100.00
5595;BME280;1003;48.002;7.788;2023-09-18T02:53:39;98765.19;;;19.44;100.00
5595;BME280;1003;48.002;7.788;2023-09-18T02:56:06;98746.59;;;19.41;100.00
5595;BME280;1003;48.002;7.788;2023-09-18T02:58:33;98741.72;;;19.37;100.00
5595;BME280;1003;48.002;7.788;2023-09-18T03:01:00;98733.59;;;19.30;100.00
5595;BME280;1003;48.002;7.788;2023-09-18T03:03:29;98737.28;;;19.25;100.00
5595;BME280;1003;48.002;7.788;2023-09-18T03:06:01;98734.16;;;19.20;100.00
5595;BME280;1003;48.002;7.788;2023-09-18T03:08:30;98712.13;;;19.03;100.00
5595;BME280;1003;48.002;7.788;2023-09-18T03:10:57;98699.88;;;19.09;100.00
5595;BME280;1003;48.002;7.788;2023-09-18T03:13:27;98675.72;;;19.01;100.00
5595;BME280;1003;48.002;7.788;2023-09-18T03:15:55;98672.94;;;19.05;100.00
5595;BME280;1003;48.002;7.788;2023-09-18T03:18:22;98655.69;;;18.95;100.00
5595;BME280;1003;48.002;7.788;2023-09-18T03:20:49;98639.56;;;18.94;100.00
5595;BME280;1003;48.002;7.788;2023-09-18T03:23:16;98638.50;;;18.98;100.00
5595;BME280;1003;48.002;7.788;2023-09-18T03:25:45;98624.28;;;18.94;100.00
5595;BME280;1003;48.002;7.788;2023-09-18T03:28:13;98609.31;;;18.88;100.00
5595;BME280;1003;48.002;7.788;2023-09-18T03:30:40;98612.78;;;18.87;100.00
5595;BME280;1003;48.002;7.788;2023-09-18T03:33:07;98603.50;;;18.86;100.00
5595;BME280;1003;48.002;7.788;2023-09-18T03:35:46;98600.63;;;18.92;100.00
5595;BME280;1003;48.002;7.788;2023-09-18T03:38:14;98590.44;;;18.92;100.00
5595;BME280;1003;48.002;7.788;2023-09-18T03:40:41;98575.50;;;18.86;100.00
5595;BME280;1003;48.002;7.788;2023-09-18T03:43:12;98548.38;;;18.85;100.00
5595;BME280;1003;48.002;7.788;2023-09-18T03:45:39;98536.56;;;18.84;100.00
5595;BME280;1003;48.002;7.788;2023-09-18T03:48:06;98534.31;;;18.78;100.00
5595;BME280;1003;48.002;7.788;2023-09-18T03:50:33;98529.41;;;18.75;100.00
5595;BME280;1003;48.002;7.788;2023-09-18T03:53:00;98521.09;;;18.71;100.00
5595;BME280;1003;48.002;7.788;2023-09-18T03:55:28;98529.31;;;18.76;100.00
5595;BME280;1003;48.002;7.788;2023-09-18T03:57:55;98552.31;;;18.75;100.00
5595;BME280;1003;48.002;7.788;2023-09-18T04:00:24;98547.72;;;18.81;100.00
5595;BME280;1003;48.002;7.788;2023-09-18T04:02:51;98555.44;;;18.80;100.00
5595;BME280;1003;48.002;7.788;2023-09-18T04:05:18;98583.84;;;18.88;100.00
5595;BME280;1003;48.002;7.788;2023-09-18T04:07:45;98613.25;;;18.78;100.00
5595;BME280;1003;48.002;7.788;2023-09-18T04:10:13;98602.75;;;18.68;100.00
5595;BME280;1003;48.002;7.788;2023-09-18T04:12:45;98586.88;;;18.63;100.00
5595;BME280;1003;48.002;7.788;2023-09-18T04:15:14;98566.97;;;18.54;100.00
5595;BME280;1003;48.002;7.788;2023-09-18T04:17:44;98568.84;;;18.50;100.00
5595;BME280;1003;48.002;7.788;2023-09-18T04:20:11;98567.38;;;18.46;100.00
5595;BME280;1003;48.002;7.788;2023-09-18T04:22:44;98570.00;;;18.45;100.00
5595;BME280;1003;48.002;7.788;2023-09-18T04:25:15;98562.31;;;18.46;100.00
5595;BME280;1003;48.002;7.788;2023-09-18T04:27:42;98552.28;;;18.43;100.00
5595;BME280;1003;48.002;7.788;2023-09-18T04:30:10;98539.53;;;18.43;100.00
5595;BME280;1003;48.002;7.788;2023-09-18T04:32:37;98538.97;;;18.38;100.00
5595;BME280;1003;48.002;7.788;2023-09-18T04:35:07;98546.84;;;18.33;100.00
5595;BME280;1003;48.002;7.788;2023-09-18T04:37:37;98537.47;;;18.34;100.00
5595;BME280;1003;48.002;7.788;2023-09-18T04:40:07;98541.16;;;18.28;100.00
5595;BME280;1003;48.002;7.788;2023-09-18T04:42:36;98538.63;;;18.28;100.00
5595;BME280;1003;48.002;7.788;2023-09-18T04:45:05;98554.69;;;18.29;100.00
5595;BME280;1003;48.002;7.788;2023-09-18T04:47:32;98570.13;;;18.26;100.00
5595;BME280;1003;48.002;7.788;2023-09-18T04:49:59;98570.63;;;18.32;100.00
5595;BME280;1003;48.002;7.788;2023-09-18T04:52:27;98580.41;;;18.40;100.00
5595;BME280;1003;48.002;7.788;2023-09-18T04:54:54;98577.31;;;18.35;100.00
5595;BME280;1003;48.002;7.788;2023-09-18T04:57:23;98589.13;;;18.36;100.00
5595;BME280;1003;48.002;7.788;2023-09-18T04:59:50;98586.72;;;18.33;100.00
5595;BME280;1003;48.002;7.788;2023-09-18T05:02:17;98601.97;;;18.33;100.00
5595;BME280;1003;48.002;7.788;2023-09-18T05:04:44;98592.63;;;18.33;100.00
5595;BME280;1003;48.002;7.788;2023-09-18T05:07:11;98592.63;;;18.33;100.00
5595;BME280;1003;48.002;7.788;2023-09-18T05:09:39;98583.25;;;18.34;100.00
5595;BME280;1003;48.002;7.788;2023-09-18T05:12:08;98598.47;;;18.35;100.00
5595;BME280;1003;48.002;7.788;2023-09-18T05:14:39;98596.81;;;18.34;100.00
5595;BME280;1003;48.002;7.788;2023-09-18T05:17:09;98601.59;;;18.41;100.00
5595;BME280;1003;48.002;7.788;2023-09-18T05:19:36;98598.97;;;18.42;100.00
5595;BME280;1003;48.002;7.788;2023-09-18T05:22:03;98621.13;;;18.40;100.00
5595;BME280;1003;48.002;7.788;2023-09-18T05:24:30;98626.88;;;18.44;100.00
5595;BME280;1003;48.002;7.788;2023-09-18T05:26:59;98620.97;;;18.43;100.00
5595;BME280;1003;48.002;7.788;2023-09-18T05:29:26;98607.44;;;18.43;100.00
5595;BME280;1003;48.002;7.788;2023-09-18T05:31:53;98606.69;;;18.41;100.00
5595;BME280;1003;48.002;7.788;2023-09-18T05:34:20;98606.75;;;18.39;100.00
5595;BME280;1003;48.002;7.788;2023-09-18T05:36:47;98625.00;;;18.47;100.00
5595;BME280;1003;48.002;7.788;2023-09-18T05:39:14;98626.66;;;18.48;100.00
5595;BME280;1003;48.002;7.788;2023-09-18T05:41:41;98628.16;;;18.52;100.00
5595;BME280;1003;48.002;7.788;2023-09-18T05:44:09;98639.97;;;18.53;100.00
5595;BME280;1003;48.002;7.788;2023-09-18T05:46:36;98671.31;;;18.54;100.00
5595;BME280;1003;48.002;7.788;2023-09-18T05:49:04;98666.91;;;18.57;100.00
5595;BME280;1003;48.002;7.788;2023-09-18T05:51:31;98684.50;;;18.62;100.00
5595;BME280;1003;48.002;7.788;2023-09-18T05:53:58;98687.78;;;18.64;100.00
5595;BME280;1003;48.002;7.788;2023-09-18T05:56:25;98686.28;;;18.60;100.00
5595;BME280;1003;48.002;7.788;2023-09-18T05:58:52;98678.88;;;18.55;100.00
5595;BME280;1003;48.002;7.788;2023-09-18T06:01:22;98676.88;;;18.62;100.00
5595;BME280;1003;48.002;7.788;2023-09-18T06:03:49;98684.50;;;18.62;100.00
5595;BME280;1003;48.002;7.788;2023-09-18T06:06:16;98691.28;;;18.61;100.00
5595;BME280;1003;48.002;7.788;2023-09-18T06:08:43;98693.69;;;18.65;100.00
5595;BME280;1003;48.002;7.788;2023-09-18T06:11:10;98695.25;;;18.67;100.00
5595;BME280;1003;48.002;7.788;2023-09-18T06:13:37;98703.50;;;18.72;100.00
5595;BME280;1003;48.002;7.788;2023-09-18T06:16:05;98694.41;;;18.68;100.00
5595;BME280;1003;48.002;7.788;2023-09-18T06:18:35;98689.59;;;18.62;100.00
5595;BME280;1003;48.002;7.788;2023-09-18T06:21:03;98689.13;;;18.71;100.00
5595;BME280;1003;48.002;7.788;2023-09-18T06:23:31;98691.28;;;18.61;100.00
5595;BME280;1003;48.002;7.788;2023-09-18T06:25:59;98699.00;;;18.60;100.00
5595;BME280;1003;48.002;7.788;2023-09-18T06:28:27;98705.97;;;18.56;100.00
5595;BME280;1003;48.002;7.788;2023-09-18T06:30:54;98716.16;;;18.56;100.00
5595;BME280;1003;48.002;7.788;2023-09-18T06:33:21;98726.28;;;18.58;100.00
5595;BME280;1003;48.002;7.788;2023-09-18T06:35:50;98707.94;;;18.51;100.00
5595;BME280;1003;48.002;7.788;2023-09-18T06:38:17;98713.09;;;18.50;100.00
5595;BME280;1003;48.002;7.788;2023-09-18T06:40:46;98708.81;;;18.50;100.00
5595;BME280;1003;48.002;7.788;2023-09-18T06:43:13;98708.81;;;18.50;100.00
5595;BME280;1003;48.002;7.788;2023-09-18T06:45:40;98717.22;;;18.52;100.00
5595;BME280;1003;48.002;7.788;2023-09-18T06:48:07;98709.63;;;18.51;100.00
5595;BME280;1003;48.002;7.788;2023-09-18T06:50:34;98694.53;;;18.48;100.00
5595;BME280;1003;48.002;7.788;2023-09-18T06:53:03;98690.28;;;18.48;100.00
5595;BME280;1003;48.002;7.788;2023-09-18T06:55:30;98697.91;;;18.48;100.00
5595;BME280;1003;48.002;7.788;2023-09-18T06:57:57;98701.34;;;18.47;100.00
5595;BME280;1003;48.002;7.788;2023-09-18T07:00:24;98698.72;;;18.49;100.00
5595;BME280;1003;48.002;7.788;2023-09-18T07:02:51;98691.00;;;18.50;100.00
5595;BME280;1003;48.002;7.788;2023-09-18T07:05:18;98681.00;;;18.47;100.00
5595;BME280;1003;48.002;7.788;2023-09-18T07:07:45;98683.00;;;18.58;100.00
5595;BME280;1003;48.002;7.788;2023-09-18T07:10:14;98688.00;;;18.59;100.00
5595;BME280;1003;48.002;7.788;2023-09-18T07:12:41;98679.47;;;18.60;100.00
5595;BME280;1003;48.002;7.788;2023-09-18T07:15:09;98659.88;;;18.62;100.00
5595;BME280;1003;48.002;7.788;2023-09-18T07:17:36;98616.06;;;18.56;100.00
5595;BME280;1003;48.002;7.788;2023-09-18T07:20:04;98621.00;;;18.59;100.00
5595;BME280;1003;48.002;7.788;2023-09-18T07:22:39;98665.09;;;18.59;100.00
5595;BME280;1003;48.002;7.788;2023-09-18T07:25:07;98676.09;;;18.60;100.00
5595;BME280;1003;48.002;7.788;2023-09-18T07:27:35;98684.53;;;18.78;100.00
5595;BME280;1003;48.002;7.788;2023-09-18T07:30:07;98675.75;;;18.68;100.00
5595;BME280;1003;48.002;7.788;2023-09-18T07:32:34;98690.94;;;18.69;100.00
5595;BME280;1003;48.002;7.788;2023-09-18T07:35:01;98691.06;;;18.66;100.00
5595;BME280;1003;48.002;7.788;2023-09-18T07:37:30;98695.03;;;18.72;100.00
5595;BME280;1003;48.002;7.788;2023-09-18T07:39:57;98705.91;;;18.75;100.00
5595;BME280;1003;48.002;7.788;2023-09-18T07:42:24;98705.22;;;18.72;100.00
5595;BME280;1003;48.002;7.788;2023-09-18T07:44:53;98692.66;;;18.69;100.00
5595;BME280;1003;48.002;7.788;2023-09-18T07:47:20;98682.41;;;18.70;100.00
5595;BME280;1003;48.002;7.788;2023-09-18T07:49:48;98694.91;;;18.75;100.00
5595;BME280;1003;48.002;7.788;2023-09-18T07:52:16;98689.31;;;18.68;100.00
5595;BME280;1003;48.002;7.788;2023-09-18T07:54:43;98693.69;;;18.65;100.00
5595;BME280;1003;48.002;7.788;2023-09-18T07:57:10;98693.59;;;18.66;100.00
5595;BME280;1003;48.002;7.788;2023-09-18T07:59:37;98696.94;;;18.68;100.00
5595;BME280;1003;48.002;7.788;2023-09-18T08:02:06;98690.94;;;18.69;100.00
5595;BME280;1003;48.002;7.788;2023-09-18T08:04:34;98677.97;;;18.74;100.00
5595;BME280;1003;48.002;7.788;2023-09-18T08:07:01;98669.25;;;18.78;100.00
5595;BME280;1003;48.002;7.788;2023-09-18T08:09:31;98668.16;;;18.83;100.00
5595;BME280;1003;48.002;7.788;2023-09-18T08:12:02;98629.38;;;18.78;100.00
5595;BME280;1003;48.002;7.788;2023-09-18T08:14:29;98630.19;;;18.79;100.00
5595;BME280;1003;48.002;7.788;2023-09-18T08:16:57;98625.25;;;18.76;100.00
5595;BME280;1003;48.002;7.788;2023-09-18T08:19:26;98634.69;;;18.74;100.00
5595;BME280;1003;48.002;7.788;2023-09-18T08:21:53;98666.47;;;18.82;100.00
5595;BME280;1003;48.002;7.788;2023-09-18T08:24:21;98695.94;;;18.71;100.00
5595;BME280;1003;48.002;7.788;2023-09-18T08:26:49;98715.09;;;18.60;100.00
5595;BME280;1003;48.002;7.788;2023-09-18T08:29:16;98724.31;;;18.63;100.00
5595;BME280;1003;48.002;7.788;2023-09-18T08:31:43;98746.53;;;18.59;100.00
5595;BME280;1003;48.002;7.788;2023-09-18T08:34:11;98744.75;;;18.61;100.00
5595;BME280;1003;48.002;7.788;2023-09-18T08:36:39;98748.69;;;18.69;100.00
5595;BME280;1003;48.002;7.788;2023-09-18T08:39:06;98751.13;;;18.70;100.00
5595;BME280;1003;48.002;7.788;2023-09-18T08:41:42;98746.56;;;18.77;100.00
5595;BME280;1003;48.002;7.788;2023-09-18T08:44:09;98755.59;;;18.82;100.00
5595;BME280;1003;48.002;7.788;2023-09-18T08:46:37;98728.66;;;18.78;100.00
5595;BME280;1003;48.002;7.788;2023-09-18T08:49:05;98723.88;;;18.72;100.00
5595;BME280;1003;48.002;7.788;2023-09-18T08:51:35;98727.09;;;18.76;100.00
5595;BME280;1003;48.002;7.788;2023-09-18T08:54:04;98723.19;;;18.86;100.00
5595;BME280;1003;48.002;7.788;2023-09-18T08:56:33;98684.75;;;18.91;100.00
5595;BME280;1003;48.002;7.788;2023-09-18T08:59:01;98669.97;;;18.97;100.00
5595;BME280;1003;48.002;7.788;2023-09-18T09:01:28;98686.06;;;18.98;100.00
5595;BME280;1003;48.002;7.788;2023-09-18T09:03:55;98688.78;;;18.95;100.00
5595;BME280;1003;48.002;7.788;2023-09-18T09:06:22;98676.69;;;18.98;100.00
5595;BME280;1003;48.002;7.788;2023-09-18T09:08:50;98681.16;;;19.10;100.00
5595;BME280;1003;48.002;7.788;2023-09-18T09:11:18;98658.47;;;19.22;100.00
5595;BME280;1003;48.002;7.788;2023-09-18T09:13:46;98661.59;;;19.11;100.00
5595;BME280;1003;48.002;7.788;2023-09-18T09:16:17;98667.00;;;19.21;100.00
5595;BME280;1003;48.002;7.788;2023-09-18T09:18:49;98663.41;;;19.25;100.00
5595;BME280;1003;48.002;7.788;2023-09-18T09:21:17;98651.66;;;19.22;100.00
5595;BME280;1003;48.002;7.788;2023-09-18T09:23:50;98656.09;;;19.19;100.00
5595;BME280;1003;48.002;7.788;2023-09-18T09:26:21;98668.56;;;19.07;100.00
5595;BME280;1003;48.002;7.788;2023-09-18T09:28:49;98671.59;;;18.98;100.00
5595;BME280;1003;48.002;7.788;2023-09-18T09:31:27;98665.91;;;18.93;100.00
5595;BME280;1003;48.002;7.788;2023-09-18T09:33:55;98679.75;;;18.89;100.00
5595;BME280;1003;48.002;7.788;2023-09-18T09:36:23;98683.69;;;18.95;100.00
5595;BME280;1003;48.002;7.788;2023-09-18T09:38:55;98679.19;;;19.00;100.00
5595;BME280;1003;48.002;7.788;2023-09-18T09:41:25;98685.59;;;19.07;100.00
5595;BME280;1003;48.002;7.788;2023-09-18T09:43:54;98675.75;;;19.17;100.00
5595;BME280;1003;48.002;7.788;2023-09-18T09:46:22;98683.88;;;19.23;100.00
5595;BME280;1003;48.002;7.788;2023-09-18T09:49:02;98693.31;;;19.37;100.00
5595;BME280;1003;48.002;7.788;2023-09-18T09:51:31;98689.06;;;19.37;100.00
5595;BME280;1003;48.002;7.788;2023-09-18T09:53:59;98681.38;;;19.53;100.00
5595;BME280;1003;48.002;7.788;2023-09-18T09:56:46;98689.31;;;19.64;100.00
5595;BME280;1003;48.002;7.788;2023-09-18T09:59:15;98693.88;;;19.74;100.00
5595;BME280;1003;48.002;7.788;2023-09-18T10:01:46;98683.75;;;19.88;100.00
5595;BME280;1003;48.002;7.788;2023-09-18T10:04:17;98684.69;;;20.01;100.00
5595;BME280;1003;48.002;7.788;2023-09-18T10:06:51;98678.59;;;20.04;100.00
5595;BME280;1003;48.002;7.788;2023-09-18T10:09:20;98678.19;;;19.96;100.00
5595;BME280;1003;48.002;7.788;2023-09-18T10:11:52;98668.41;;;20.04;100.00
5595;BME280;1003;48.002;7.788;2023-09-18T10:14:30;98657.75;;;20.11;100.00
5595;BME280;1003;48.002;7.788;2023-09-18T10:17:06;98672.13;;;20.12;100.00
5595;BME280;1003;48.002;7.788;2023-09-18T10:19:45;98669.38;;;20.01;100.00
5595;BME280;1003;48.002;7.788;2023-09-18T10:22:27;98687.03;;;19.90;100.00
5595;BME280;1003;48.002;7.788;2023-09-18T10:25:07;98703.72;;;19.96;100.00
5595;BME280;1003;48.002;7.788;2023-09-18T10:27:41;98706.78;;;20.16;100.00
5595;BME280;1003;48.002;7.788;2023-09-18T10:30:12;98698.00;;;20.36;100.00
5595;BME280;1003;48.002;7.788;2023-09-18T10:32:40;98698.16;;;20.33;100.00
5595;BME280;1003;48.002;7.788;2023-09-18T10:35:07;98711.44;;;20.54;100.00
5595;BME280;1003;48.002;7.788;2023-09-18T10:37:38;98707.81;;;20.73;100.00
5595;BME280;1003;48.002;7.788;2023-09-18T10:40:08;98714.94;;;20.96;100.00
5595;BME280;1003;48.002;7.788;2023-09-18T10:42:39;98741.19;;;21.41;100.00
5595;BME280;1003;48.002;7.788;2023-09-18T10:45:08;98675.69;;;21.80;100.00
5595;BME280;1003;48.002;7.788;2023-09-18T10:47:38;98684.59;;;21.99;100.00
5595;BME280;1003;48.002;7.788;2023-09-18T10:50:08;98693.41;;;22.35;100.00
5595;BME280;1003;48.002;7.788;2023-09-18T10:52:35;98709.50;;;22.50;100.00
5595;BME280;1003;48.002;7.788;2023-09-18T10:55:03;98721.38;;;22.51;100.00
5595;BME280;1003;48.002;7.788;2023-09-18T10:57:34;98658.16;;;22.51;100.00
5595;BME280;1003;48.002;7.788;2023-09-18T11:00:04;98666.13;;;22.60;100.00
5595;BME280;1003;48.002;7.788;2023-09-18T11:02:40;98685.91;;;22.83;100.00
5595;BME280;1003;48.002;7.788;2023-09-18T11:05:08;98728.66;;;22.83;100.00
5595;BME280;1003;48.002;7.788;2023-09-18T11:07:35;98759.91;;;22.75;100.00
5595;BME280;1003;48.002;7.788;2023-09-18T11:10:26;98770.34;;;22.59;100.00
5595;BME280;1003;48.002;7.788;2023-09-18T11:12:53;98775.97;;;22.51;100.00
5595;BME280;1003;48.002;7.788;2023-09-18T11:15:31;98784.16;;;22.44;100.00
5595;BME280;1003;48.002;7.788;2023-09-18T11:18:00;98795.88;;;22.61;100.00
5595;BME280;1003;48.002;7.788;2023-09-18T11:20:28;98813.47;;;22.65;100.00
5595;BME280;1003;48.002;7.788;2023-09-18T11:22:58;98854.19;;;22.70;100.00
5595;BME280;1003;48.002;7.788;2023-09-18T11:25:40;98856.56;;;22.86;100.00
5595;BME280;1003;48.002;7.788;2023-09-18T11:28:13;98866.25;;;23.08;100.00
5595;BME280;1003;48.002;7.788;2023-09-18T11:30:51;98874.47;;;23.38;100.00
5595;BME280;1003;48.002;7.788;2023-09-18T11:33:31;98870.53;;;23.58;100.00
5595;BME280;1003;48.002;7.788;2023-09-18T11:36:07;98847.69;;;23.68;100.00
5595;BME280;1003;48.002;7.788;2023-09-18T11:38:52;98859.47;;;23.70;100.00
5595;BME280;1003;48.002;7.788;2023-09-18T11:41:24;98869.38;;;23.62;100.00
5595;BME280;1003;48.002;7.788;2023-09-18T11:43:52;98862.56;;;23.63;100.00
5595;BME280;1003;48.002;7.788;2023-09-18T11:46:21;98864.88;;;23.78;100.00
5595;BME280;1003;48.002;7.788;2023-09-18T11:48:49;98859.72;;;23.91;100.00
5595;BME280;1003;48.002;7.788;2023-09-18T11:51:23;98852.13;;;23.90;100.00
5595;BME280;1003;48.002;7.788;2023-09-18T11:53:55;98852.75;;;23.80;100.00
5595;BME280;1003;48.002;7.788;2023-09-18T11:56:23;98849.41;;;23.67;100.00
5595;BME280;1003;48.002;7.788;2023-09-18T11:58:51;98861.91;;;23.59;100.00
5595;BME280;1003;48.002;7.788;2023-09-18T12:01:22;98863.38;;;23.38;100.00
5595;BME280;1003;48.002;7.788;2023-09-18T12:03:54;98863.78;;;23.44;100.00
5595;BME280;1003;48.002;7.788;2023-09-18T12:06:21;98862.56;;;23.24;100.00
5595;BME280;1003;48.002;7.788;2023-09-18T12:08:51;98868.72;;;23.35;100.00
5595;BME280;1003;48.002;7.788;2023-09-18T12:11:20;98862.06;;;23.32;100.00
5595;BME280;1003;48.002;7.788;2023-09-18T12:13:51;98864.31;;;23.24;100.00
5595;BME280;1003;48.002;7.788;2023-09-18T12:16:18;98856.81;;;23.21;100.00
5595;BME280;1003;48.002;7.788;2023-09-18T12:18:47;98859.91;;;23.26;100.00
5595;BME280;1003;48.002;7.788;2023-09-18T12:21:16;98857.94;;;23.29;100.00
5595;BME280;1003;48.002;7.788;2023-09-18T12:23:45;98856.94;;;23.19;100.00
5595;BME280;1003;48.002;7.788;2023-09-18T12:26:14;98846.75;;;23.18;100.00
5595;BME280;1003;48.002;7.788;2023-09-18T12:28:42;98860.41;;;23.18;100.00
5595;BME280;1003;48.002;7.788;2023-09-18T12:31:14;98846.97;;;23.27;100.00
5595;BME280;1003;48.002;7.788;2023-09-18T12:33:43;98852.28;;;23.50;100.00
5595;BME280;1003;48.002;7.788;2023-09-18T12:36:19;98845.38;;;23.76;100.00
5595;BME280;1003;48.002;7.788;2023-09-18T12:38:55;98865.03;;;24.01;100.00
5595;BME280;1003;48.002;7.788;2023-09-18T12:41:25;98859.63;;;24.17;100.00
5595;BME280;1003;48.002;7.788;2023-09-18T12:43:53;98838.91;;;24.31;100.00
5595;BME280;1003;48.002;7.788;2023-09-18T12:46:21;98839.25;;;24.50;100.00
5595;BME280;1003;48.002;7.788;2023-09-18T12:48:48;98820.94;;;24.66;100.00
5595;BME280;1003;48.002;7.788;2023-09-18T12:51:16;98806.59;;;24.75;100.00
5595;BME280;1003;48.002;7.788;2023-09-18T12:53:59;98800.63;;;24.85;100.00
5595;BME280;1003;48.002;7.788;2023-09-18T12:56:26;98780.06;;;24.74;100.00
5595;BME280;1003;48.002;7.788;2023-09-18T12:58:57;98752.81;;;24.49;100.00
5595;BME280;1003;48.002;7.788;2023-09-18T13:01:24;98733.88;;;24.39;100.00
5595;BME280;1003;48.002;7.788;2023-09-18T13:03:54;98723.44;;;24.29;100.00
5595;BME280;1003;48.002;7.788;2023-09-18T13:06:23;98727.03;;;24.27;100.00
5595;BME280;1003;48.002;7.788;2023-09-18T13:08:50;98710.09;;;24.24;100.00
5595;BME280;1003;48.002;7.788;2023-09-18T13:11:19;98698.19;;;24.23;100.00
5595;BME280;1003;48.002;7.788;2023-09-18T13:13:45;98699.38;;;24.30;100.00
5595;BME280;1003;48.002;7.788;2023-09-18T13:16:13;98682.44;;;24.17;100.00
5595;BME280;1003;48.002;7.788;2023-09-18T13:18:40;98678.94;;;24.18;100.00